Time;durP1;ratioP1;P1;durP2;ratioP2;P2;SDS_P1;SDS_P2;PMS_P1;PMS_P2;Temp;Humidity;BMP_temperature;BMP_pressure;BME280_temperature;BME280_humidity;BME280_pressure;Samples;Min_cycle;Max_cycle;Signal;HPM_P1;HPM_P2
2023/06/13 00:00:10;;;;;;;;;;;17.80;71.70;;;-151.14;100.00;62537.16;5071513;28;19920;-84
2023/06/13 00:02:38;;;;;;;;;;;17.80;72.20;;;17.02;100.00;62537.16;5071863;28;20093;-83
2023/06/13 00:05:10;;;;;;;;;;;17.80;72.30;;;-151.14;100.00;62537.16;5055115;28;19927;-83
2023/06/13 00:07:38;;;;;;;;;;;17.80;72.40;;;60.43;100.00;62537.16;5071720;28;19921;-83
2023/06/13 00:10:06;;;;;;;;;;;17.80;71.70;;;-151.14;100.00;62537.16;5072313;28;19920;-83
2023/06/13 00:12:36;;;;;;;;;;;17.70;72.30;;;-151.14;100.00;62537.16;5054696;28;19920;-83
2023/06/13 00:15:05;;;;;;;;;;;17.80;72.10;;;-151.14;100.00;62537.16;5055126;28;19927;-84
2023/06/13 00:17:36;;;;;;;;;;;17.70;72.40;;;-151.14;100.00;62537.16;5072513;28;19924;-83
2023/06/13 00:20:06;;;;;;;;;;;17.70;72.30;;;-151.14;100.00;62537.16;5054493;28;19920;-83
2023/06/13 00:22:35;;;;;;;;;;;17.70;72.00;;;-151.14;100.00;62537.16;5071559;28;19920;-83
2023/06/13 00:25:04;;;;;;;;;;;17.80;72.40;;;-151.14;100.00;62537.16;5071126;28;19920;-84
2023/06/13 00:27:32;;;;;;;;;;;17.80;72.50;;;-151.14;100.00;62537.16;5072456;28;20212;-83
2023/06/13 00:30:02;;;;;;;;;;;17.80;72.30;;;-151.14;100.00;62537.16;5071016;28;19931;-83
2023/06/13 00:32:33;;;;;;;;;;;17.80;72.10;;;-151.14;100.00;62537.16;5071351;28;20205;-83
2023/06/13 00:35:01;;;;;;;;;;;17.90;72.30;;;-151.14;100.00;62537.16;5072604;28;19927;-83
2023/06/13 00:37:34;;;;;;;;;;;17.90;72.30;;;60.43;100.00;62537.16;5071285;28;19921;-83
2023/06/13 00:40:05;;;;;;;;;;;17.90;71.80;;;-151.14;100.00;62537.16;5070841;28;19930;-83
2023/06/13 00:42:35;;;;;;;;;;;17.90;71.80;;;-151.14;100.00;62537.16;5070932;28;19927;-84
2023/06/13 00:45:19;;;;;;;;;;;18.00;71.80;;;-151.14;100.00;62537.16;5071386;28;19927;-83
2023/06/13 00:47:52;;;;;;;;;;;18.00;71.70;;;-151.14;100.00;62537.16;5054215;28;19920;-83
2023/06/13 00:50:20;;;;;;;;;;;18.00;71.70;;;-151.14;100.00;62537.16;5053801;28;19934;-83
2023/06/13 00:52:49;;;;;;;;;;;18.00;72.70;;;-151.14;100.00;62537.16;5072098;28;19994;-83
2023/06/13 00:55:21;;;;;;;;;;;18.00;71.70;;;-151.14;100.00;62537.16;5054601;28;19920;-83
2023/06/13 00:57:51;;;;;;;;;;;18.00;71.50;;;-151.14;100.00;62537.16;5071109;28;19920;-83
2023/06/13 01:00:22;;;;;;;;;;;18.00;71.30;;;-151.14;100.00;62537.16;5070434;28;19920;-83
2023/06/13 01:02:55;;;;;;;;;;;18.00;71.50;;;-151.14;100.00;62537.16;5070945;28;19921;-83
2023/06/13 01:05:28;;;;;;;;;;;18.10;71.60;;;-151.14;100.00;62537.16;5071018;28;19920;-83
2023/06/13 01:07:57;;;;;;;;;;;18.10;71.60;;;-151.14;100.00;62537.16;5070779;28;19920;-83
2023/06/13 01:10:28;;;;;;;;;;;18.10;71.70;;;-151.14;100.00;62537.16;5070241;28;19920;-83
2023/06/13 01:13:01;;;;;;;;;;;18.10;71.50;;;-151.14;100.00;62537.16;5071578;28;19920;-83
2023/06/13 01:15:30;;;;;;;;;;;18.10;71.40;;;-151.14;100.00;62537.16;5070826;28;19920;-83
2023/06/13 01:17:58;;;;;;;;;;;18.10;71.40;;;17.41;100.00;62537.16;5087313;28;19921;-83
2023/06/13 01:20:27;;;;;;;;;;;18.10;71.40;;;-151.14;100.00;62537.16;5070206;28;19934;-83
2023/06/13 01:23:03;;;;;;;;;;;18.10;71.50;;;-151.14;100.00;62537.16;5087196;28;19926;-84
2023/06/13 01:25:38;;;;;;;;;;;18.10;71.50;;;-151.14;100.00;62537.16;5054020;28;19926;-83
2023/06/13 01:28:07;;;;;;;;;;;18.00;71.40;;;18.08;100.00;62537.16;5070380;28;19927;-83
2023/06/13 01:30:35;;;;;;;;;;;18.00;71.40;;;-151.14;100.00;62537.16;5053093;28;19920;-83
2023/06/13 01:33:03;;;;;;;;;;;18.00;71.40;;;-151.14;100.00;62537.16;5070191;28;19920;-83
2023/06/13 01:35:31;;;;;;;;;;;18.00;71.30;;;-151.14;100.00;62537.16;5069759;28;19927;-82
2023/06/13 01:37:59;;;;;;;;;;;18.00;71.30;;;-151.14;100.00;62537.16;5070148;28;19926;-83
2023/06/13 01:40:27;;;;;;;;;;;18.00;71.40;;;-151.14;100.00;62537.16;5069796;28;19920;-83
2023/06/13 01:42:55;;;;;;;;;;;18.00;71.40;;;-151.14;100.00;62537.16;5070493;28;20115;-83
2023/06/13 01:45:25;;;;;;;;;;;18.00;71.40;;;-151.14;100.00;62537.16;5070429;28;19920;-83
2023/06/13 01:48:05;;;;;;;;;;;18.00;71.40;;;60.43;100.00;62537.16;5053398;28;19920;-83
2023/06/13 01:50:36;;;;;;;;;;;18.00;71.40;;;-151.14;100.00;62537.16;5070912;28;19920;-83
2023/06/13 01:53:06;;;;;;;;;;;18.00;71.30;;;18.08;100.00;62537.16;5071148;28;20097;-83
2023/06/13 01:55:37;;;;;;;;;;;18.00;71.20;;;-151.14;100.00;62537.16;5053725;28;19926;-82
2023/06/13 01:58:11;;;;;;;;;;;18.00;71.30;;;-151.14;100.00;62537.16;5070148;28;19920;-82
2023/06/13 02:00:42;;;;;;;;;;;18.00;71.60;;;-151.14;100.00;62537.16;5069859;28;20231;-82
2023/06/13 02:03:10;;;;;;;;;;;18.00;71.60;;;-151.14;100.00;62537.16;5070263;28;19920;-82
2023/06/13 02:05:39;;;;;;;;;;;18.00;71.60;;;-151.14;100.00;62537.16;5053516;28;20111;-82
2023/06/13 02:08:07;;;;;;;;;;;18.00;71.50;;;-151.14;100.00;62537.16;5068820;28;19920;-82
2023/06/13 02:10:35;;;;;;;;;;;18.00;71.40;;;-151.14;100.00;62537.16;5085625;28;19921;-82
2023/06/13 02:13:04;;;;;;;;;;;18.00;71.50;;;-151.14;100.00;62537.16;5069818;28;19921;-82
2023/06/13 02:15:32;;;;;;;;;;;18.00;71.50;;;-151.14;100.00;62537.16;5069978;28;19926;-82
2023/06/13 02:18:02;;;;;;;;;;;18.00;71.50;;;-151.14;100.00;62537.16;5069683;28;19920;-82
2023/06/13 02:20:30;;;;;;;;;;;18.00;71.60;;;-151.14;100.00;62537.16;5069479;28;19927;-82
2023/06/13 02:22:58;;;;;;;;;;;18.00;71.30;;;-151.14;100.00;62537.16;5070816;28;19920;-82
2023/06/13 02:25:26;;;;;;;;;;;18.00;71.30;;;;;;5070808;28;19929;-82
2023/06/13 02:27:53;;;;;;;;;;;18.00;71.40;;;-151.14;100.00;62537.16;5069802;28;19920;-83
2023/06/13 02:30:21;;;;;;;;;;;18.00;71.40;;;-151.14;100.00;62537.16;5069946;28;19920;-83
2023/06/13 02:32:50;;;;;;;;;;;18.00;71.50;;;-151.14;100.00;62537.16;5070777;28;19920;-82
2023/06/13 02:35:23;;;;;;;;;;;18.00;71.50;;;-151.14;100.00;62537.16;5070804;28;19921;-82
2023/06/13 02:37:53;;;;;;;;;;;17.90;71.20;;;-151.14;100.00;62537.16;5053012;28;19927;-82
2023/06/13 02:40:23;;;;;;;;;;;17.90;71.50;;;18.08;100.00;62537.16;5069025;28;19927;-82
2023/06/13 02:42:52;;;;;;;;;;;17.80;71.60;;;-151.14;100.00;62537.16;5052655;28;19920;-82
2023/06/13 02:45:20;;;;;;;;;;;17.80;71.50;;;-151.14;100.00;62537.16;5069399;28;19927;-82
2023/06/13 02:47:48;;;;;;;;;;;17.80;71.50;;;-151.14;100.00;62537.16;5072250;28;19921;-83
2023/06/13 02:50:16;;;;;;;;;;;17.90;71.60;;;-151.14;100.00;62537.16;5055586;28;20227;-82
2023/06/13 02:52:47;;;;;;;;;;;17.80;71.30;;;-151.14;100.00;62537.16;5074006;28;19920;-82
2023/06/13 02:55:17;;;;;;;;;;;17.90;71.50;;;18.12;100.00;62537.16;5073091;28;20132;-82
2023/06/13 02:57:46;;;;;;;;;;;17.90;71.50;;;-151.14;100.00;62537.16;5074210;28;19927;-82
2023/06/13 03:00:15;;;;;;;;;;;17.90;71.50;;;18.08;100.00;62537.16;5089030;28;19920;-82
2023/06/13 03:02:47;;;;;;;;;;;17.90;71.40;;;-151.14;100.00;62537.16;5056140;28;19920;-82
2023/06/13 03:05:16;;;;;;;;;;;17.90;71.50;;;18.16;100.00;62537.16;5072802;28;19920;-83
2023/06/13 03:07:47;;;;;;;;;;;17.80;71.40;;;-151.14;100.00;62537.16;5072926;28;19920;-83
2023/06/13 03:10:21;;;;;;;;;;;17.90;71.50;;;-151.14;100.00;62537.16;5072179;28;19927;-82
2023/06/13 03:12:49;;;;;;;;;;;17.80;71.10;;;-151.14;100.00;62537.16;5055777;28;19921;-82
2023/06/13 03:15:17;;;;;;;;;;;17.80;71.40;;;-151.14;100.00;62537.16;5073745;28;19921;-83
2023/06/13 03:17:47;;;;;;;;;;;17.80;71.50;;;-151.14;100.00;62537.16;5072830;28;19927;-82
2023/06/13 03:20:17;;;;;;;;;;;17.70;71.50;;;-151.14;100.00;62537.16;5055029;28;20098;-82
2023/06/13 03:22:48;;;;;;;;;;;17.70;71.60;;;-151.14;100.00;62537.16;5072481;28;19920;-82
2023/06/13 03:25:17;;;;;;;;;;;17.70;71.70;;;18.08;100.00;62537.16;5072652;28;19920;-82
2023/06/13 03:27:49;;;;;;;;;;;17.70;71.90;;;-151.14;100.00;62537.16;5072657;28;19920;-82
2023/06/13 03:30:18;;;;;;;;;;;17.70;71.80;;;-151.14;100.00;62537.16;5071666;28;19928;-82
2023/06/13 03:32:46;;;;;;;;;;;17.70;72.00;;;-151.14;100.00;62537.16;5055626;28;20208;-82
2023/06/13 03:35:14;;;;;;;;;;;17.70;72.00;;;187.61;100.00;62537.16;5072403;28;20213;-82
2023/06/13 03:37:42;;;;;;;;;;;17.70;71.80;;;-151.14;100.00;62537.16;5055485;28;19920;-82
2023/06/13 03:40:13;;;;;;;;;;;17.80;71.80;;;-151.14;100.00;62537.16;5054762;28;19927;-82
2023/06/13 03:42:41;;;;;;;;;;;17.80;71.70;;;16.99;100.00;62537.16;5072157;28;19920;-82
2023/06/13 03:45:10;;;;;;;;;;;17.80;71.60;;;-151.14;100.00;62537.16;5055536;28;19927;-82
2023/06/13 03:47:38;;;;;;;;;;;17.80;71.50;;;-151.14;100.00;62537.16;5055278;28;19928;-82
2023/06/13 03:50:07;;;;;;;;;;;17.80;71.50;;;-151.14;100.00;62537.16;5054504;28;20205;-82
2023/06/13 03:52:35;;;;;;;;;;;17.80;71.60;;;-151.14;100.00;62537.16;5055464;28;19921;-82
2023/06/13 03:55:03;;;;;;;;;;;17.80;71.50;;;-151.14;100.00;62537.16;5088834;28;19935;-82
2023/06/13 03:57:34;;;;;;;;;;;17.80;71.60;;;-151.14;100.00;62537.16;5072316;28;20302;-82
2023/06/13 04:00:04;;;;;;;;;;;17.80;71.40;;;-151.14;100.00;62537.16;5053494;28;19921;-82
2023/06/13 04:02:41;;;;;;;;;;;17.80;71.60;;;-151.14;100.00;62537.16;5072964;28;19986;-82
2023/06/13 04:05:12;;;;;;;;;;;17.80;71.50;;;;;;5072016;28;19927;-82
2023/06/13 04:07:40;;;;;;;;;;;17.80;71.30;;;187.61;100.00;62537.16;5072013;28;19921;-82
2023/06/13 04:10:08;;;;;;;;;;;17.80;71.10;;;-151.14;100.00;62537.16;5054334;28;19921;-82
2023/06/13 04:12:38;;;;;;;;;;;17.70;71.30;;;-151.14;100.00;62537.16;5071710;28;19927;-82
2023/06/13 04:15:07;;;;;;;;;;;17.70;71.60;;;-151.14;100.00;62537.16;5071883;28;20258;-82
2023/06/13 04:17:36;;;;;;;;;;;17.70;71.60;;;-151.14;100.00;62537.16;5071815;28;19924;-82
2023/06/13 04:20:05;;;;;;;;;;;17.70;71.60;;;-151.14;100.00;62537.16;5070934;28;20195;-82
2023/06/13 04:22:33;;;;;;;;;;;17.70;71.80;;;-151.14;100.00;62537.16;5071799;28;19929;-82
2023/06/13 04:25:01;;;;;;;;;;;17.70;71.70;;;-151.14;100.00;62537.16;5071636;28;19927;-82
2023/06/13 04:27:29;;;;;;;;;;;17.70;71.60;;;-151.14;100.00;62537.16;5054894;28;19920;-82
2023/06/13 04:29:59;;;;;;;;;;;17.70;71.50;;;-151.14;100.00;62537.16;5070905;28;19921;-82
2023/06/13 04:32:28;;;;;;;;;;;17.70;71.40;;;-151.14;100.00;62537.16;5088261;28;19920;-82
2023/06/13 04:34:58;;;;;;;;;;;17.70;71.60;;;-151.14;100.00;62537.16;5071568;28;20235;-83
2023/06/13 04:37:26;;;;;;;;;;;17.80;71.50;;;-151.14;100.00;62537.16;5071658;28;19920;-82
2023/06/13 04:39:54;;;;;;;;;;;17.80;71.40;;;-151.14;100.00;62537.16;5071846;28;19927;-82
2023/06/13 04:42:27;;;;;;;;;;;17.80;71.60;;;-151.14;100.00;62537.16;5072403;28;20253;-82
2023/06/13 04:44:57;;;;;;;;;;;17.80;71.50;;;-151.14;100.00;62537.16;5054610;28;19924;-83
2023/06/13 04:47:27;;;;;;;;;;;17.80;71.40;;;-151.14;100.00;62537.16;5072483;28;19951;-82
2023/06/13 04:49:58;;;;;;;;;;;17.80;71.20;;;-151.14;100.00;62537.16;5071778;28;19921;-82
2023/06/13 04:52:26;;;;;;;;;;;17.80;71.30;;;-151.14;100.00;62537.16;5071610;28;19921;-83
2023/06/13 04:54:55;;;;;;;;;;;17.80;71.50;;;-151.14;100.00;62537.16;5088127;28;19921;-82
2023/06/13 04:57:23;;;;;;;;;;;17.80;71.30;;;-151.14;100.00;62537.16;5054398;28;19920;-82
2023/06/13 04:59:51;;;;;;;;;;;17.80;71.30;;;-151.14;100.00;62537.16;5070162;28;19927;-82
2023/06/13 05:02:19;;;;;;;;;;;17.80;71.40;;;-151.14;100.00;62537.16;5070997;28;19921;-82
2023/06/13 05:04:48;;;;;;;;;;;17.80;71.20;;;-151.14;100.00;62537.16;5087750;28;19921;-82
2023/06/13 05:07:17;;;;;;;;;;;17.80;71.30;;;-151.14;100.00;62537.16;5070839;28;19920;-82
2023/06/13 05:09:46;;;;;;;;;;;17.80;71.30;;;-151.14;100.00;62537.16;5053612;28;19935;-83
2023/06/13 05:12:14;;;;;;;;;;;17.90;71.50;;;-151.14;100.00;62537.16;5053950;28;19920;-82
2023/06/13 05:14:42;;;;;;;;;;;17.90;71.60;;;-151.14;100.00;62537.16;5072136;28;19921;-82
2023/06/13 05:17:12;;;;;;;;;;;17.90;71.60;;;-151.14;100.00;62537.16;5071688;28;19921;-82
2023/06/13 05:19:41;;;;;;;;;;;17.90;71.50;;;-151.14;100.00;62537.16;5071109;28;19929;-82
2023/06/13 05:22:10;;;;;;;;;;;17.90;71.50;;;-151.14;100.00;62537.16;5071700;28;20105;-83
2023/06/13 05:24:38;;;;;;;;;;;17.90;71.40;;;-151.14;100.00;62537.16;5054099;28;19920;-82
2023/06/13 05:27:07;;;;;;;;;;;17.90;71.30;;;-151.14;100.00;62537.16;5071614;28;19927;-83
2023/06/13 05:29:35;;;;;;;;;;;18.00;71.30;;;-151.14;100.00;62537.16;5070275;28;19920;-82
2023/06/13 05:32:04;;;;;;;;;;;18.00;71.30;;;-151.14;100.00;62537.16;5071464;28;20089;-83
2023/06/13 05:34:32;;;;;;;;;;;18.00;71.30;;;-151.14;100.00;62537.16;5070695;28;19920;-82
2023/06/13 05:37:01;;;;;;;;;;;17.90;71.50;;;-151.14;100.00;62537.16;5087118;28;19927;-82
2023/06/13 05:39:31;;;;;;;;;;;17.90;71.60;;;-151.14;100.00;62537.16;5070078;28;20208;-83
2023/06/13 05:41:59;;;;;;;;;;;17.90;71.80;;;-151.14;100.00;62537.16;5086912;28;19920;-83
2023/06/13 05:44:27;;;;;;;;;;;17.90;71.70;;;-151.14;100.00;62537.16;5070396;28;19920;-83
2023/06/13 05:46:55;;;;;;;;;;;17.90;71.80;;;-151.14;100.00;62537.16;5070133;28;19927;-82
2023/06/13 05:49:23;;;;;;;;;;;17.90;71.80;;;-151.14;100.00;62537.16;5053051;28;19927;-82
2023/06/13 05:51:52;;;;;;;;;;;17.90;71.80;;;-151.14;100.00;62537.16;5053478;28;19956;-82
2023/06/13 05:54:20;;;;;;;;;;;17.90;71.70;;;-151.14;100.00;62537.16;5070537;28;19920;-82
2023/06/13 05:56:50;;;;;;;;;;;17.90;71.90;;;-151.14;100.00;62537.16;5053579;28;19921;-83
2023/06/13 05:59:18;;;;;;;;;;;17.90;72.00;;;-151.14;100.00;62537.16;5053025;28;19921;-83
2023/06/13 06:01:46;;;;;;;;;;;17.90;71.80;;;-151.14;100.00;62537.16;5069764;28;20230;-82
2023/06/13 06:04:14;;;;;;;;;;;17.90;72.00;;;-151.14;100.00;62537.16;5053605;28;19920;-83
2023/06/13 06:06:42;;;;;;;;;;;17.90;72.00;;;-151.14;100.00;62537.16;5070029;28;20235;-83
2023/06/13 06:09:10;;;;;;;;;;;17.90;71.90;;;-151.14;100.00;62537.16;5052898;28;19921;-83
2023/06/13 06:11:38;;;;;;;;;;;17.90;72.00;;;-151.14;100.00;62537.16;5069839;28;20204;-83
2023/06/13 06:14:08;;;;;;;;;;;18.00;72.10;;;-151.14;100.00;62537.16;5070143;28;19920;-82
2023/06/13 06:16:36;;;;;;;;;;;17.90;72.10;;;-151.14;100.00;62537.16;5069559;28;19920;-82
2023/06/13 06:19:04;;;;;;;;;;;17.90;72.30;;;-151.14;100.00;62537.16;5069458;28;19943;-83
2023/06/13 06:21:32;;;;;;;;;;;17.90;72.30;;;-151.14;100.00;62537.16;5069542;28;20356;-83
2023/06/13 06:24:00;;;;;;;;;;;17.90;72.30;;;-151.14;100.00;62537.16;5056792;28;19920;-83
2023/06/13 06:26:28;;;;;;;;;;;17.90;72.30;;;-151.14;100.00;62537.16;5074574;28;19927;-83
2023/06/13 06:28:56;;;;;;;;;;;17.90;72.50;;;-151.14;100.00;62537.16;5073066;28;20117;-83
2023/06/13 06:31:27;;;;;;;;;;;17.90;72.60;;;-151.14;100.00;62537.16;5074203;28;19943;-83
2023/06/13 06:33:55;;;;;;;;;;;17.90;72.40;;;-151.14;100.00;62537.16;5073669;28;19921;-82
2023/06/13 06:36:24;;;;;;;;;;;17.90;73.10;;;-151.14;100.00;62537.16;5073480;28;19927;-83
2023/06/13 06:38:52;;;;;;;;;;;17.90;72.80;;;-151.14;100.00;62537.16;5072713;28;19920;-83
2023/06/13 06:41:20;;;;;;;;;;;17.90;72.90;;;-151.14;100.00;62537.16;5073237;28;19920;-83
2023/06/13 06:43:48;;;;;;;;;;;17.90;72.90;;;-151.14;100.00;62537.16;5073325;28;19921;-82
2023/06/13 06:46:17;;;;;;;;;;;17.90;73.00;;;-151.14;100.00;62537.16;5056262;28;20090;-83
2023/06/13 06:48:46;;;;;;;;;;;17.90;72.90;;;-151.14;100.00;62537.16;5072469;28;20109;-83
2023/06/13 06:51:14;;;;;;;;;;;17.90;73.10;;;-151.14;100.00;62537.16;5056394;28;19943;-83
2023/06/13 06:53:43;;;;;;;;;;;17.90;73.10;;;-151.14;100.00;62537.16;5056379;28;19920;-83
2023/06/13 06:56:11;;;;;;;;;;;17.90;72.90;;;-151.14;100.00;62537.16;5073059;28;19926;-83
2023/06/13 06:58:39;;;;;;;;;;;17.90;73.20;;;-151.14;100.00;62537.16;5072425;28;19920;-83
2023/06/13 07:01:07;;;;;;;;;;;17.90;73.30;;;-151.14;100.00;62537.16;5072810;28;20120;-83
2023/06/13 07:03:35;;;;;;;;;;;17.90;73.20;;;-151.14;100.00;62537.16;5072748;28;19920;-83
2023/06/13 07:06:05;;;;;;;;;;;17.90;73.30;;;-151.14;100.00;62537.16;5073755;28;19928;-83
2023/06/13 07:08:33;;;;;;;;;;;17.90;73.30;;;-151.14;100.00;62537.16;5072195;28;19939;-83
2023/06/13 07:11:01;;;;;;;;;;;17.90;73.20;;;-151.14;100.00;62537.16;5072860;28;19942;-83
2023/06/13 07:13:30;;;;;;;;;;;18.00;73.30;;;-151.14;100.00;62537.16;5055869;28;20100;-83
2023/06/13 07:15:57;;;;;;;;;;;18.00;73.30;;;-151.14;100.00;62537.16;5072805;28;19927;-83
2023/06/13 07:18:25;;;;;;;;;;;18.00;73.40;;;-151.14;100.00;62537.16;5073166;28;20226;-83
2023/06/13 07:20:53;;;;;;;;;;;18.00;73.30;;;-151.14;100.00;62537.16;5073797;28;19920;-83
2023/06/13 07:23:23;;;;;;;;;;;17.90;73.60;;;-151.14;100.00;62537.16;5072743;28;20117;-83
2023/06/13 07:25:51;;;;;;;;;;;17.90;73.80;;;-151.14;100.00;62537.16;5072477;28;19927;-83
2023/06/13 07:28:20;;;;;;;;;;;17.90;74.20;;;-151.14;100.00;62537.16;5073289;28;20227;-84
2023/06/13 07:30:48;;;;;;;;;;;17.80;74.10;;;-151.14;100.00;62537.16;5072593;28;20134;-83
2023/06/13 07:33:16;;;;;;;;;;;17.80;74.20;;;-151.14;100.00;62537.16;5072643;28;19920;-83
2023/06/13 07:35:44;;;;;;;;;;;17.80;74.10;;;-151.14;100.00;62537.16;5055353;28;19927;-83
2023/06/13 07:38:12;;;;;;;;;;;17.90;74.20;;;-151.14;100.00;62537.16;5072360;28;19920;-83
2023/06/13 07:40:41;;;;;;;;;;;17.90;74.20;;;-151.14;100.00;62537.16;5071960;28;19921;-83
2023/06/13 07:43:09;;;;;;;;;;;17.90;74.10;;;-151.14;100.00;62537.16;5072267;28;19927;-83
2023/06/13 07:45:37;;;;;;;;;;;17.90;74.20;;;-151.14;100.00;62537.16;5071863;28;19920;-83
2023/06/13 07:48:06;;;;;;;;;;;17.90;74.20;;;-151.14;100.00;62537.16;5089163;28;19942;-83
2023/06/13 07:50:34;;;;;;;;;;;17.90;74.00;;;-151.14;100.00;62537.16;5071522;28;19920;-83
2023/06/13 07:53:02;;;;;;;;;;;17.90;74.30;;;-151.14;100.00;62537.16;5071814;28;19921;-83
2023/06/13 07:55:30;;;;;;;;;;;17.90;74.20;;;-151.14;100.00;62537.16;5072099;28;19920;-84
2023/06/13 07:57:59;;;;;;;;;;;17.90;74.40;;;-151.14;100.00;62537.16;5071944;28;19921;-84
2023/06/13 08:00:28;;;;;;;;;;;17.90;74.30;;;-151.14;100.00;62537.16;5071364;28;19920;-84
2023/06/13 08:02:57;;;;;;;;;;;17.90;74.40;;;-151.14;100.00;62537.16;5071912;28;20208;-84
2023/06/13 08:05:26;;;;;;;;;;;17.90;74.50;;;-151.14;100.00;62537.16;5072222;28;20114;-84
2023/06/13 08:07:55;;;;;;;;;;;17.90;74.50;;;-151.14;100.00;62537.16;5071968;28;19946;-84
2023/06/13 08:10:25;;;;;;;;;;;17.90;74.50;;;-151.14;100.00;62537.16;5054787;28;19920;-83
2023/06/13 08:12:53;;;;;;;;;;;17.90;74.70;;;-151.14;100.00;62537.16;5088617;28;19920;-83
2023/06/13 08:15:23;;;;;;;;;;;17.90;74.80;;;-151.14;100.00;62537.16;5072046;28;19921;-83
2023/06/13 08:17:52;;;;;;;;;;;17.90;74.90;;;-151.14;100.00;62537.16;5054786;28;19934;-84
2023/06/13 08:20:20;;;;;;;;;;;17.90;75.00;;;-151.14;100.00;62537.16;5088024;28;19921;-84
2023/06/13 08:22:50;;;;;;;;;;;17.90;75.10;;;-151.14;100.00;62537.16;5072762;28;19920;-83
2023/06/13 08:25:18;;;;;;;;;;;17.90;75.30;;;-151.14;100.00;62537.16;5071718;28;19921;-84
2023/06/13 08:27:46;;;;;;;;;;;17.90;75.20;;;-151.14;100.00;62537.16;5071322;28;19920;-83
2023/06/13 08:30:14;;;;;;;;;;;17.90;75.30;;;-151.14;100.00;62537.16;5070966;28;19986;-84
2023/06/13 08:32:46;;;;;;;;;;;17.90;75.20;;;-151.14;100.00;62537.16;5071601;28;19921;-83
2023/06/13 08:35:15;;;;;;;;;;;17.90;75.70;;;-151.14;100.00;62537.16;5071642;28;19921;-83
2023/06/13 08:37:43;;;;;;;;;;;17.90;75.60;;;-151.14;100.00;62537.16;5054743;28;19920;-83
2023/06/13 08:40:12;;;;;;;;;;;17.90;75.60;;;-151.14;100.00;62537.16;5070478;28;20208;-83
2023/06/13 08:42:40;;;;;;;;;;;17.90;75.80;;;-151.14;100.00;62537.16;5072398;28;19921;-83
2023/06/13 08:45:09;;;;;;;;;;;17.90;75.70;;;-151.14;100.00;62537.16;5070674;28;20121;-83
2023/06/13 08:47:38;;;;;;;;;;;17.90;76.10;;;-151.14;100.00;62537.16;5072558;28;19920;-83
2023/06/13 08:50:08;;;;;;;;;;;17.90;76.40;;;-151.14;100.00;62537.16;5070520;28;19920;-84
2023/06/13 08:52:38;;;;;;;;;;;17.90;76.30;;;-151.14;100.00;62537.16;5071239;28;19927;-83
2023/06/13 08:55:08;;;;;;;;;;;17.80;76.10;;;-151.14;100.00;62537.16;5071050;28;19927;-84
2023/06/13 08:57:36;;;;;;;;;;;17.90;76.70;;;-151.14;100.00;62537.16;5071175;28;20209;-84
2023/06/13 09:00:09;;;;;;;;;;;17.90;76.30;;;-151.14;100.00;62537.16;5070521;28;20094;-84
2023/06/13 09:02:37;;;;;;;;;;;17.80;76.60;;;-151.14;100.00;62537.16;5072174;28;19920;-84
2023/06/13 09:05:06;;;;;;;;;;;17.90;76.80;;;-151.14;100.00;62537.16;5071040;28;19921;-83
2023/06/13 09:07:35;;;;;;;;;;;17.80;76.60;;;-151.14;100.00;62537.16;5070979;28;19934;-83
2023/06/13 09:10:03;;;;;;;;;;;17.90;76.70;;;-151.14;100.00;62537.16;5070443;28;19920;-83
2023/06/13 09:12:31;;;;;;;;;;;17.90;76.30;;;-151.14;100.00;62537.16;5067517;28;19920;-83
2023/06/13 09:14:59;;;;;;;;;;;17.90;76.80;;;-151.14;100.00;62537.16;5034254;28;19927;-84
2023/06/13 09:17:27;;;;;;;;;;;18.00;76.80;;;-151.14;100.00;62537.16;5050788;28;20239;-83
2023/06/13 09:19:55;;;;;;;;;;;18.00;76.30;;;-151.14;100.00;62537.16;5050270;28;19943;-84
2023/06/13 09:22:24;;;;;;;;;;;18.00;76.60;;;-151.14;100.00;62537.16;5050665;28;19943;-84
2023/06/13 09:24:52;;;;;;;;;;;18.00;77.00;;;-151.14;100.00;62537.16;5050380;28;19920;-83
2023/06/13 09:27:21;;;;;;;;;;;18.10;76.40;;;-151.14;100.00;62537.16;5051841;28;19920;-84
2023/06/13 09:29:49;;;;;;;;;;;18.10;77.10;;;-151.14;100.00;62537.16;5050193;28;19927;-84
2023/06/13 09:32:17;;;;;;;;;;;18.10;76.90;;;-151.14;100.00;62537.16;5084194;28;19927;-83
2023/06/13 09:34:45;;;;;;;;;;;18.10;76.80;;;-151.14;100.00;62537.16;5051654;28;19920;-84
2023/06/13 09:37:13;;;;;;;;;;;18.10;76.90;;;-151.14;100.00;62537.16;5084036;28;19927;-84
2023/06/13 09:39:48;;;;;;;;;;;18.10;76.40;;;-151.14;100.00;62537.16;5066565;28;19921;-84
2023/06/13 09:42:16;;;;;;;;;;;18.10;76.30;;;-151.14;100.00;62537.16;5083959;28;20128;-84
2023/06/13 09:44:44;;;;;;;;;;;18.10;75.80;;;-151.14;100.00;62537.16;5066897;28;19921;-84
2023/06/13 09:47:14;;;;;;;;;;;18.20;76.10;;;-151.14;100.00;62537.16;5067185;28;19920;-84
2023/06/13 09:49:42;;;;;;;;;;;18.20;76.10;;;-151.14;100.00;62537.16;5049613;28;19928;-84
2023/06/13 09:52:10;;;;;;;;;;;18.20;75.90;;;-151.14;100.00;62537.16;5051830;28;19921;-84
2023/06/13 09:54:38;;;;;;;;;;;18.20;76.20;;;-151.14;100.00;62537.16;5070369;28;19926;-84
2023/06/13 09:57:08;;;;;;;;;;;18.20;76.10;;;-151.14;100.00;62537.16;5052735;28;19927;-84
2023/06/13 09:59:36;;;;;;;;;;;18.20;75.80;;;-151.14;100.00;62537.16;5070636;28;19921;-84
2023/06/13 10:02:04;;;;;;;;;;;18.20;75.80;;;-151.14;100.00;62537.16;5053462;28;19920;-84
2023/06/13 10:04:32;;;;;;;;;;;18.20;76.20;;;-151.14;100.00;62537.16;5070298;28;19942;-84
2023/06/13 10:07:02;;;;;;;;;;;18.30;76.20;;;-151.14;100.00;62537.16;5053464;28;19920;-84
2023/06/13 10:09:30;;;;;;;;;;;18.20;75.70;;;-151.14;100.00;62537.16;5070665;28;19921;-84
2023/06/13 10:11:58;;;;;;;;;;;18.30;75.70;;;-151.14;100.00;62537.16;5086789;28;19921;-84
2023/06/13 10:14:28;;;;;;;;;;;18.30;75.80;;;-151.14;100.00;62537.16;5069921;28;20124;-84
2023/06/13 10:17:00;;;;;;;;;;;18.30;75.60;;;-151.14;100.00;62537.16;5053581;28;20235;-84
2023/06/13 10:19:27;;;;;;;;;;;18.30;75.70;;;-151.14;100.00;62537.16;5103318;28;19927;-84
2023/06/13 10:21:55;;;;;;;;;;;18.40;75.80;;;-151.14;100.00;62537.16;5069842;28;19920;-85
2023/06/13 10:24:23;;;;;;;;;;;18.40;75.60;;;-151.14;100.00;62537.16;5053273;28;19927;-84
2023/06/13 10:26:53;;;;;;;;;;;18.40;75.40;;;-151.14;100.00;62537.16;5069521;28;19927;-84
2023/06/13 10:29:40;;;;;;;;;;;18.40;75.50;;;-151.14;100.00;62537.16;5052704;28;19921;-84
2023/06/13 10:32:16;;;;;;;;;;;18.40;75.00;;;-151.14;100.00;62537.16;5086658;28;19927;-84
2023/06/13 10:34:55;;;;;;;;;;;18.50;74.80;;;-151.14;100.00;62537.16;5053129;28;19942;-84
2023/06/13 10:37:43;;;;;;;;;;;18.50;75.80;;;-151.14;100.00;62537.16;5069783;28;20227;-85
2023/06/13 10:40:45;;;;;;;;;;;18.50;74.80;;;-151.14;100.00;62537.16;5070365;28;19921;-84
2023/06/13 10:43:15;;;;;;;;;;;18.50;74.70;;;-151.14;100.00;62537.16;5067158;28;19926;-85
2023/06/13 10:45:45;;;;;;;;;;;18.50;74.50;;;-151.14;100.00;62537.16;5086178;28;19920;-85
2023/06/13 10:48:13;;;;;;;;;;;18.50;74.80;;;-151.14;100.00;62537.16;5069665;28;19939;-85
2023/06/13 10:50:43;;;;;;;;;;;18.50;74.60;;;-151.14;100.00;62537.16;5069104;28;19921;-84
2023/06/13 10:53:23;;;;;;;;;;;18.50;74.60;;;-151.14;100.00;62537.16;5052995;28;19927;-85
2023/06/13 10:55:52;;;;;;;;;;;18.50;74.50;;;-151.14;100.00;62537.16;5069675;28;19921;-84
2023/06/13 10:58:19;;;;;;;;;;;18.50;74.40;;;-151.14;100.00;62537.16;5052726;28;19920;-85
2023/06/13 11:00:49;;;;;;;;;;;18.50;74.30;;;-151.14;100.00;62537.16;5102843;28;19921;-85
2023/06/13 11:03:17;;;;;;;;;;;18.50;74.20;;;-151.14;100.00;62537.16;5052530;28;19921;-85
2023/06/13 11:05:49;;;;;;;;;;;18.50;74.10;;;-151.14;100.00;62537.16;5069484;28;20231;-84